createdAt,value
2017-11-11T00:00:59.986Z,7.02
2017-11-11T00:03:30.999Z,7.08
2017-11-11T00:06:01.110Z,7.09
2017-11-11T00:08:33.015Z,7.14
2017-11-11T00:11:03.595Z,7.19
2017-11-11T00:13:36.614Z,7.10
2017-11-11T00:16:06.787Z,7.19
2017-11-11T00:18:38.046Z,7.20
2017-11-11T00:21:11.091Z,7.22
2017-11-11T00:23:41.205Z,7.18
2017-11-11T00:26:11.320Z,7.19
2017-11-11T00:28:41.325Z,7.18
2017-11-11T00:31:11.229Z,7.15
2017-11-11T00:33:41.204Z,7.06
2017-11-11T00:36:12.093Z,7.16
2017-11-11T00:38:42.100Z,7.18
2017-11-11T00:41:12.512Z,7.11
2017-11-11T00:46:17.025Z,7.15
2017-11-11T00:48:47.036Z,7.11
2017-11-11T00:51:17.064Z,7.17
2017-11-11T00:53:46.963Z,7.19
2017-11-11T00:56:17.815Z,7.18
2017-11-11T00:58:47.952Z,7.13
2017-11-11T01:01:18.164Z,7.17
2017-11-11T01:03:48.832Z,7.08
2017-11-11T01:06:18.636Z,7.05
2017-11-11T01:08:48.655Z,7.11
2017-11-11T01:11:19.092Z,7.05
2017-11-11T01:13:48.980Z,7.08
2017-11-11T01:16:20.193Z,7.10
2017-11-11T01:18:50.212Z,7.03
2017-11-11T01:21:20.750Z,7.08
2017-11-11T01:23:50.831Z,7.11
2017-11-11T01:26:21.621Z,7.07
2017-11-11T01:28:51.568Z,7.09
2017-11-11T01:31:23.099Z,7.05
2017-11-11T01:33:52.813Z,7.12
2017-11-11T01:36:23.408Z,7.06
2017-11-11T01:38:54.561Z,7.08
2017-11-11T01:41:28.326Z,7.09
2017-11-11T01:43:58.483Z,7.11
2017-11-11T01:46:28.726Z,7.15
2017-11-11T01:48:58.691Z,7.18
2017-11-11T01:51:28.730Z,7.14
2017-11-11T01:53:59.508Z,7.11
2017-11-11T01:56:29.469Z,7.16
2017-11-11T01:58:59.960Z,7.14
2017-11-11T02:01:30.859Z,7.10
2017-11-11T02:04:00.738Z,7.13
2017-11-11T02:06:30.152Z,7.18
2017-11-11T02:09:00.194Z,7.13
2017-11-11T02:11:30.142Z,7.12
2017-11-11T02:14:00.717Z,7.17
2017-11-11T02:16:30.700Z,7.19
2017-11-11T02:19:01.828Z,7.23
2017-11-11T02:21:32.699Z,7.18
2017-11-11T02:24:03.235Z,7.24
2017-11-11T02:26:33.997Z,7.18
2017-11-11T02:29:03.982Z,7.20
2017-11-11T02:31:34.302Z,7.18
2017-11-11T02:37:04.332Z,7.08
2017-11-11T02:39:34.296Z,7.02
2017-11-11T02:42:03.986Z,6.97
2017-11-11T02:44:33.939Z,6.83
2017-11-11T02:47:04.094Z,6.69
2017-11-11T02:49:34.383Z,6.56
2017-11-11T02:52:06.792Z,6.46
2017-11-11T02:54:38.325Z,6.56
2017-11-11T02:57:09.536Z,6.49
2017-11-11T03:15:07.037Z,6.25
2017-11-11T03:17:37.592Z,6.28
2017-11-11T03:20:12.180Z,6.22
2017-11-11T03:30:59.032Z,5.95
2017-11-11T03:33:30.984Z,6.06
2017-11-11T03:36:02.341Z,6.11
2017-11-11T03:50:13.527Z,6.07
2017-11-11T04:05:16.862Z,5.95
2017-11-11T04:24:37.683Z,5.87
2017-11-11T04:27:09.152Z,5.74
2017-11-11T04:29:39.974Z,5.70
2017-11-11T04:32:09.844Z,5.63
2017-11-11T04:34:40.556Z,5.69
2017-11-11T04:37:12.351Z,5.74
2017-11-11T04:39:42.743Z,5.71
2017-11-11T04:50:05.387Z,5.74
2017-11-11T04:55:09.026Z,5.75
2017-11-11T04:57:40.086Z,5.73
2017-11-11T05:00:11.111Z,5.73
2017-11-11T05:18:18.244Z,5.62
2017-11-11T05:20:50.435Z,5.79
2017-11-11T05:28:30.923Z,5.93
2017-11-11T05:44:21.282Z,5.87
2017-11-11T05:46:55.064Z,5.92
2017-11-11T05:49:28.921Z,5.97
2017-11-11T05:51:58.695Z,5.93
2017-11-11T05:54:30.372Z,5.92
2017-11-11T05:57:00.571Z,5.91
2017-11-11T05:59:33.379Z,5.86
2017-11-11T06:02:03.980Z,5.80
2017-11-11T06:04:34.713Z,5.86
2017-11-11T06:07:04.786Z,5.89
2017-11-11T06:09:35.001Z,5.84
2017-11-11T06:14:43.038Z,5.95
2017-11-11T06:17:12.968Z,5.93
2017-11-11T06:19:43.084Z,5.86
2017-11-11T06:52:05.836Z,6.08
2017-11-11T07:18:54.972Z,6.55
2017-11-11T07:24:02.980Z,6.78
2017-11-11T07:32:24.537Z,7.01
2017-11-11T07:34:54.566Z,7.21
2017-11-11T07:37:24.558Z,7.20
2017-11-11T07:39:54.630Z,7.13
2017-11-11T07:42:24.946Z,7.03
2017-11-11T07:44:55.256Z,6.85
2017-11-11T07:47:25.748Z,6.88
2017-11-11T07:49:56.053Z,6.91
2017-11-11T07:52:25.942Z,6.95
2017-11-11T07:54:55.805Z,6.98
2017-11-11T07:57:25.676Z,7.02
2017-11-11T07:59:55.790Z,7.33
2017-11-11T08:02:26.785Z,7.30
2017-11-11T08:04:58.014Z,7.09
2017-11-11T08:07:28.353Z,7.20
2017-11-11T08:09:58.101Z,7.15
2017-11-11T08:12:27.846Z,7.08
2017-11-11T08:14:57.668Z,7.25
2017-11-11T08:17:27.421Z,7.62
2017-11-11T08:19:57.269Z,7.99
2017-11-11T08:22:27.761Z,7.91
2017-11-11T08:24:57.458Z,7.80
2017-11-11T08:27:27.512Z,7.62
2017-11-11T08:29:58.680Z,7.85
2017-11-11T08:35:02.632Z,7.85
2017-11-11T08:37:32.501Z,8.13
2017-11-11T08:40:02.601Z,8.28
2017-11-11T08:42:32.699Z,8.61
2017-11-11T08:45:02.983Z,11.10
2017-11-11T08:47:33.354Z,12.52
2017-11-11T08:50:04.284Z,13.29
2017-11-11T08:52:34.573Z,11.21
2017-11-11T08:55:04.621Z,10.78
2017-11-11T08:57:36.140Z,9.06
2017-11-11T09:00:07.087Z,8.90
2017-11-11T09:02:36.923Z,8.77
2017-11-11T09:05:06.795Z,9.02
2017-11-11T09:07:36.990Z,8.69
2017-11-11T09:10:06.906Z,8.33
2017-11-11T09:12:42.613Z,8.11
2017-11-11T09:15:19.287Z,8.38
2017-11-11T09:17:50.229Z,10.57
2017-11-11T09:20:20.519Z,12.86
2017-11-11T09:22:50.545Z,14.70
2017-11-11T09:25:20.657Z,15.58
2017-11-11T09:27:50.900Z,16.99
2017-11-11T09:30:22.043Z,18.14
2017-11-11T09:32:52.785Z,18.44
2017-11-11T09:35:22.964Z,17.20
2017-11-11T09:37:52.623Z,16.67
2017-11-11T09:40:22.899Z,16.47
2017-11-11T09:42:55.247Z,16.05
2017-11-11T10:04:55.010Z,10.80
2017-11-11T10:07:25.401Z,10.84
2017-11-11T10:09:56.630Z,11.70
2017-11-11T10:12:29.010Z,12.84
2017-11-11T10:15:00.357Z,12.97
2017-11-11T10:17:31.665Z,13.03
2017-11-11T10:20:03.009Z,13.22
2017-11-11T10:26:03.655Z,12.65
2017-11-11T10:28:37.970Z,14.02
2017-11-11T10:31:08.498Z,13.38
2017-11-11T10:33:39.159Z,13.20
2017-11-11T10:36:09.681Z,12.19
2017-11-11T10:38:41.230Z,12.39
2017-11-11T10:41:12.372Z,11.80
2017-11-11T10:43:42.900Z,11.28
2017-11-11T10:46:13.404Z,11.02
2017-11-11T10:48:43.697Z,10.59
2017-11-11T10:51:14.498Z,9.53
2017-11-11T10:53:44.603Z,9.45
2017-11-11T10:56:16.382Z,9.43
2017-11-11T10:58:49.170Z,9.55
2017-11-11T11:01:21.147Z,9.54
2017-11-11T11:03:53.200Z,9.33
2017-11-11T11:06:24.920Z,9.15
2017-11-11T11:08:55.764Z,9.25
2017-11-11T11:11:27.266Z,9.82
2017-11-11T11:13:59.023Z,9.64
2017-11-11T11:16:30.764Z,9.63
2017-11-11T11:19:02.587Z,9.50
2017-11-11T11:21:34.326Z,9.34
2017-11-11T11:24:06.046Z,9.64
2017-11-11T11:26:37.691Z,9.87
2017-11-11T11:29:09.206Z,9.99
2017-11-11T11:31:42.508Z,9.90
2017-11-11T11:34:15.280Z,9.71
2017-11-11T11:36:46.572Z,9.72
2017-11-11T11:39:17.856Z,9.55
2017-11-11T11:41:49.115Z,9.62
2017-11-11T11:44:19.061Z,9.36
2017-11-11T11:46:50.709Z,9.19
2017-11-11T11:49:23.190Z,9.04
2017-11-11T11:51:58.058Z,9.17
2017-11-11T11:54:30.035Z,9.14
2017-11-11T11:57:01.753Z,9.43
2017-11-11T11:59:33.597Z,9.61
2017-11-11T12:02:04.884Z,9.71
2017-11-11T12:04:36.793Z,9.76
2017-11-11T12:07:09.220Z,9.42
2017-11-11T12:09:39.380Z,9.50
2017-11-11T12:12:09.276Z,9.28
2017-11-11T12:14:39.321Z,9.24
2017-11-11T12:17:09.197Z,9.05
2017-11-11T12:19:39.033Z,8.73
2017-11-11T12:22:09.121Z,8.69
2017-11-11T12:24:39.292Z,8.71
2017-11-11T12:27:09.237Z,8.75
2017-11-11T12:29:40.401Z,8.74
2017-11-11T12:32:12.849Z,8.60
2017-11-11T12:34:45.064Z,8.60
2017-11-11T12:37:15.248Z,8.68
2017-11-11T12:39:45.593Z,8.70
2017-11-11T12:42:16.159Z,8.71
2017-11-11T12:44:52.119Z,8.46
2017-11-11T12:47:24.110Z,8.35
2017-11-11T12:49:55.930Z,8.32
2017-11-11T12:52:27.703Z,8.33
2017-11-11T12:54:57.520Z,8.31
2017-11-11T12:57:29.109Z,8.29
2017-11-11T13:00:00.241Z,8.31
2017-11-11T13:02:31.265Z,8.16
2017-11-11T13:05:03.602Z,8.19
2017-11-11T13:07:35.541Z,8.11
2017-11-11T13:10:08.398Z,8.03
2017-11-11T13:12:40.302Z,7.94
2017-11-11T13:15:11.789Z,7.93
2017-11-11T13:17:42.739Z,7.95
2017-11-11T13:20:12.649Z,8.03
2017-11-11T13:22:44.235Z,7.98
2017-11-11T13:25:14.854Z,8.00
2017-11-11T13:27:45.561Z,7.98
2017-11-11T13:30:16.580Z,7.82
2017-11-11T13:32:46.609Z,7.71
2017-11-11T13:35:17.258Z,7.66
2017-11-11T13:37:48.803Z,7.63
2017-11-11T13:40:19.188Z,7.73
2017-11-11T13:42:50.958Z,7.73
2017-11-11T13:45:21.725Z,7.64
2017-11-11T13:47:54.038Z,7.62
2017-11-11T13:50:25.221Z,7.66
2017-11-11T13:52:56.122Z,7.75
2017-11-11T13:55:27.464Z,7.70
2017-11-11T13:57:57.667Z,7.74
2017-11-11T14:00:28.993Z,7.77
2017-11-11T14:03:01.120Z,7.71
2017-11-11T14:05:32.171Z,7.62
2017-11-11T14:08:03.613Z,7.63
2017-11-11T14:10:33.530Z,7.69
2017-11-11T14:13:03.339Z,7.63
2017-11-11T14:15:33.133Z,7.57
2017-11-11T14:18:02.890Z,7.47
2017-11-11T14:20:32.636Z,7.39
2017-11-11T14:23:02.689Z,7.34
2017-11-11T14:25:32.565Z,7.37
2017-11-11T14:28:02.428Z,7.39
2017-11-11T14:31:09.999Z,7.38
2017-11-11T14:33:39.763Z,7.33
2017-11-11T14:36:09.492Z,7.34
2017-11-11T14:38:39.273Z,7.28
2017-11-11T14:41:08.908Z,7.13
2017-11-11T14:43:39.155Z,7.01
2017-11-11T14:46:08.914Z,6.95
2017-11-11T14:48:38.867Z,6.90
2017-11-11T14:51:08.617Z,6.79
2017-11-11T14:53:38.372Z,6.60
2017-11-11T14:56:08.137Z,6.50
2017-11-11T14:58:41.952Z,6.48
2017-11-11T15:01:11.725Z,6.49
2017-11-11T15:03:42.115Z,6.45
2017-11-11T15:06:11.852Z,6.34
2017-11-11T15:08:41.604Z,6.24
2017-11-11T15:11:11.362Z,6.21
2017-11-11T15:13:40.914Z,6.20
2017-11-11T15:16:10.484Z,6.14
2017-11-11T15:18:40.577Z,6.16
2017-11-11T15:21:10.402Z,6.18
2017-11-11T15:23:39.990Z,6.17
2017-11-11T15:26:09.765Z,6.12
2017-11-11T15:28:39.750Z,6.09
2017-11-11T15:31:09.340Z,6.11
2017-11-11T15:33:39.089Z,6.06
2017-11-11T15:36:08.818Z,6.05
2017-11-11T15:38:38.587Z,6.06
2017-11-11T15:41:08.352Z,6.05
2017-11-11T15:43:38.106Z,6.09
2017-11-11T15:46:08.228Z,6.02
2017-11-11T15:48:38.021Z,6.04
2017-11-11T15:51:07.775Z,5.99
2017-11-11T15:53:39.234Z,6.00
2017-11-11T15:56:09.175Z,6.06
2017-11-11T15:58:38.951Z,6.03
2017-11-11T16:01:08.590Z,6.03
2017-11-11T16:03:38.216Z,6.04
2017-11-11T16:06:07.814Z,6.00
2017-11-11T16:08:37.471Z,5.96
2017-11-11T16:11:07.389Z,5.93
2017-11-11T16:13:36.964Z,5.87
2017-11-11T16:16:07.280Z,5.95
2017-11-11T16:18:37.025Z,5.91
2017-11-11T16:21:07.863Z,5.94
2017-11-11T16:23:37.782Z,5.91
2017-11-11T16:26:07.640Z,5.86
2017-11-11T16:28:37.512Z,5.86
2017-11-11T16:31:07.418Z,5.90
2017-11-11T16:33:37.172Z,5.88
2017-11-11T16:36:07.022Z,5.89
2017-11-11T16:38:36.816Z,5.85
2017-11-11T16:41:06.658Z,5.88
2017-11-11T16:43:36.561Z,5.80
2017-11-11T16:46:06.335Z,5.76
2017-11-11T16:48:36.310Z,5.75
2017-11-11T16:51:06.388Z,5.84
2017-11-11T16:53:36.349Z,5.86
2017-11-11T16:56:06.253Z,5.95
2017-11-11T16:58:36.985Z,5.94
2017-11-11T17:01:06.858Z,5.96
2017-11-11T17:03:36.880Z,5.96
2017-11-11T17:06:10.891Z,5.86
2017-11-11T17:08:40.755Z,5.95
2017-11-11T17:11:14.854Z,5.90
2017-11-11T17:13:44.515Z,5.87
2017-11-11T17:16:14.508Z,5.80
2017-11-11T17:18:44.313Z,5.90
2017-11-11T17:21:14.067Z,5.88
2017-11-11T17:23:43.946Z,6.00
2017-11-11T17:26:13.791Z,6.00
2017-11-11T17:28:43.776Z,5.96
2017-11-11T17:31:13.656Z,5.98
2017-11-11T17:33:44.140Z,5.96
2017-11-11T17:36:13.968Z,5.91
2017-11-11T17:38:43.698Z,5.91
2017-11-11T17:41:13.432Z,5.95
2017-11-11T17:43:46.217Z,5.91
2017-11-11T17:46:15.983Z,5.90
2017-11-11T17:48:46.001Z,5.85
2017-11-11T17:51:15.755Z,5.83
2017-11-11T17:53:45.530Z,5.82
2017-11-11T17:56:15.297Z,5.80
2017-11-11T17:58:45.049Z,5.86
2017-11-11T18:01:14.806Z,5.79
2017-11-11T18:03:44.368Z,5.83
2017-11-11T18:06:13.927Z,5.86
2017-11-11T18:08:43.738Z,5.83
2017-11-11T18:11:13.570Z,5.81
2017-11-11T18:13:43.426Z,5.74
2017-11-11T18:16:13.185Z,5.69
2017-11-11T18:18:42.991Z,5.71
2017-11-11T18:21:12.759Z,5.68
2017-11-11T18:23:42.573Z,5.78
2017-11-11T18:26:12.353Z,5.81
2017-11-11T18:28:42.109Z,5.92
2017-11-11T18:31:11.939Z,5.98
2017-11-11T18:33:41.777Z,5.86
2017-11-11T18:36:11.554Z,5.74
2017-11-11T18:38:41.456Z,5.70
2017-11-11T18:41:11.282Z,5.75
2017-11-11T18:43:41.055Z,5.78
2017-11-11T18:46:10.617Z,5.79
2017-11-11T18:48:40.377Z,5.84
2017-11-11T18:51:10.184Z,5.90
2017-11-11T18:53:40.067Z,6.03
2017-11-11T18:56:10.089Z,5.97
2017-11-11T18:58:39.950Z,5.96
2017-11-11T19:01:09.762Z,5.94
2017-11-11T19:03:39.370Z,5.94
2017-11-11T19:06:09.139Z,6.02
2017-11-11T19:08:38.965Z,6.03
2017-11-11T19:11:08.819Z,6.05
2017-11-11T19:13:38.546Z,6.05
2017-11-11T19:16:08.925Z,6.08
2017-11-11T19:18:38.886Z,6.18
2017-11-11T19:21:08.832Z,6.23
2017-11-11T19:23:42.440Z,6.21
2017-11-11T19:26:12.261Z,6.26
2017-11-11T19:28:42.028Z,6.16
2017-11-11T19:31:11.824Z,6.16
2017-11-11T19:33:41.582Z,6.20
2017-11-11T19:36:11.465Z,6.16
2017-11-11T19:38:41.495Z,6.12
2017-11-11T19:41:11.262Z,6.19
2017-11-11T19:43:41.270Z,6.27
2017-11-11T19:46:11.073Z,6.36
2017-11-11T19:48:40.822Z,6.38
2017-11-11T19:51:10.704Z,6.39
2017-11-11T19:53:40.722Z,6.28
2017-11-11T19:56:10.607Z,6.27
2017-11-11T19:58:40.340Z,6.22
2017-11-11T20:01:10.143Z,6.22
2017-11-11T20:03:40.771Z,6.28
2017-11-11T20:06:10.602Z,6.37
2017-11-11T20:08:40.889Z,6.34
2017-11-11T20:11:10.718Z,6.26
2017-11-11T20:13:40.545Z,6.29
2017-11-11T20:16:10.296Z,6.30
2017-11-11T20:18:40.057Z,6.27
2017-11-11T20:21:09.878Z,6.26
2017-11-11T20:23:39.642Z,6.33
2017-11-11T20:26:09.402Z,6.35
2017-11-11T20:28:38.979Z,6.36
2017-11-11T20:31:08.981Z,6.40
2017-11-11T20:33:38.559Z,6.33
2017-11-11T20:36:08.339Z,6.28
2017-11-11T20:38:37.964Z,6.32
2017-11-11T20:41:07.737Z,6.30
2017-11-11T20:43:37.546Z,6.31
2017-11-11T20:46:07.316Z,6.35
2017-11-11T20:48:37.135Z,6.39
2017-11-11T20:51:10.990Z,6.33
2017-11-11T20:53:40.773Z,6.27
2017-11-11T20:56:10.343Z,6.28
2017-11-11T20:58:40.145Z,6.31
2017-11-11T21:01:10.031Z,6.30
2017-11-11T21:03:39.830Z,6.28
2017-11-11T21:06:09.855Z,6.31
2017-11-11T21:08:39.615Z,6.31
2017-11-11T21:11:09.574Z,6.32
2017-11-11T21:13:39.341Z,6.33
2017-11-11T21:16:20.112Z,6.37
2017-11-11T21:18:52.260Z,6.46
2017-11-11T21:21:21.457Z,6.41
2017-11-11T21:23:50.928Z,6.44
2017-11-11T21:26:20.703Z,6.44
2017-11-11T21:28:58.288Z,6.39
2017-11-11T21:31:30.340Z,6.47
2017-11-11T21:33:59.932Z,6.44
2017-11-11T21:36:29.747Z,6.54
2017-11-11T21:38:59.555Z,6.46
2017-11-11T21:41:29.333Z,6.64
2017-11-11T21:44:00.279Z,6.57
2017-11-11T21:46:30.361Z,6.59
2017-11-11T21:49:09.065Z,6.63
2017-11-11T21:51:41.404Z,6.59
2017-11-11T21:54:10.986Z,6.62
2017-11-11T21:56:40.751Z,6.60
2017-11-11T21:59:10.591Z,6.63
2017-11-11T22:01:40.375Z,6.65
2017-11-11T22:04:10.199Z,6.66
2017-11-11T22:06:39.965Z,6.68
2017-11-11T22:09:09.922Z,6.75
2017-11-11T22:11:39.681Z,6.78
2017-11-11T22:14:09.483Z,6.87
2017-11-11T22:16:39.258Z,6.90
2017-11-11T22:19:09.165Z,6.95
2017-11-11T22:21:38.944Z,7.06
2017-11-11T22:24:08.695Z,7.13
2017-11-11T22:26:38.449Z,7.11
2017-11-11T22:29:08.295Z,7.14
2017-11-11T22:31:38.159Z,7.25
2017-11-11T22:34:08.056Z,7.30
2017-11-11T22:36:38.004Z,7.34
2017-11-11T22:39:07.746Z,7.41
2017-11-11T22:41:37.491Z,7.55
2017-11-11T22:44:08.769Z,7.59
2017-11-11T22:46:38.538Z,7.59
2017-11-11T22:49:08.369Z,7.73
2017-11-11T22:51:38.441Z,7.80
2017-11-11T22:54:08.345Z,7.86
2017-11-11T22:56:38.454Z,7.86
2017-11-11T22:59:08.293Z,7.96
2017-11-11T23:01:38.161Z,7.95
2017-11-11T23:04:08.178Z,7.99
2017-11-11T23:06:39.529Z,8.03
2017-11-11T23:09:09.683Z,8.15
2017-11-11T23:11:39.541Z,8.14
2017-11-11T23:14:09.358Z,8.16
2017-11-11T23:16:39.116Z,8.26
2017-11-11T23:19:09.588Z,8.13
2017-11-11T23:21:39.753Z,8.19
2017-11-11T23:24:10.391Z,8.20
2017-11-11T23:26:40.765Z,8.19
2017-11-11T23:29:11.934Z,8.20
2017-11-11T23:31:42.430Z,8.18
2017-11-11T23:34:12.675Z,8.18
2017-11-11T23:36:42.594Z,8.21
2017-11-11T23:39:15.626Z,8.15
2017-11-11T23:41:47.988Z,8.18
2017-11-11T23:44:18.025Z,8.17
2017-11-11T23:46:49.341Z,8.22
2017-11-11T23:49:19.633Z,8.20
2017-11-11T23:51:50.265Z,8.27
2017-11-11T23:54:20.782Z,8.24
2017-11-11T23:56:51.210Z,8.28
2017-11-11T23:59:24.794Z,8.26
